sensor_id;sensor_type;location;lat;lon;timestamp;pressure;altitude;pressure_sealevel;temperature;humidity
50103;BME280;35993;52.604;10.078;2023-04-27T00:02:12;101513.75;;;5.81;85.27
50103;BME280;35993;52.604;10.078;2023-04-27T00:04:38;101514.75;;;5.72;85.22
50103;BME280;35993;52.604;10.078;2023-04-27T00:07:03;101506.16;;;5.60;85.59
50103;BME280;35993;52.604;10.078;2023-04-27T00:09:29;101514.00;;;5.53;85.87
50103;BME280;35993;52.604;10.078;2023-04-27T00:11:55;101507.63;;;5.46;85.97
50103;BME280;35993;52.604;10.078;2023-04-27T00:14:20;101504.56;;;5.41;86.28
50103;BME280;35993;52.604;10.078;2023-04-27T00:16:46;101512.31;;;5.44;87.09
50103;BME280;35993;52.604;10.078;2023-04-27T00:19:12;101505.06;;;5.36;87.21
50103;BME280;35993;52.604;10.078;2023-04-27T00:21:39;101510.22;;;5.21;87.61
50103;BME280;35993;52.604;10.078;2023-04-27T00:24:05;101510.72;;;5.25;87.40
50103;BME280;35993;52.604;10.078;2023-04-27T00:26:31;101506.88;;;5.28;87.30
50103;BME280;35993;52.604;10.078;2023-04-27T00:28:58;101500.47;;;5.29;87.36
50103;BME280;35993;52.604;10.078;2023-04-27T00:31:23;101508.88;;;5.25;87.66
50103;BME280;35993;52.604;10.078;2023-04-27T00:33:49;101505.50;;;5.23;87.81
50103;BME280;35993;52.604;10.078;2023-04-27T00:36:15;101501.66;;;5.26;87.99
50103;BME280;35993;52.604;10.078;2023-04-27T00:38:40;101501.13;;;5.22;87.77
50103;BME280;35993;52.604;10.078;2023-04-27T00:41:06;101499.78;;;5.18;87.67
50103;BME280;35993;52.604;10.078;2023-04-27T00:43:39;101503.09;;;5.12;87.93
50103;BME280;35993;52.604;10.078;2023-04-27T00:46:05;101498.88;;;5.09;88.59
50103;BME280;35993;52.604;10.078;2023-04-27T00:48:31;101504.97;;;5.12;88.72
50103;BME280;35993;52.604;10.078;2023-04-27T00:50:56;101502.63;;;5.17;88.56
50103;BME280;35993;52.604;10.078;2023-04-27T00:53:22;101500.88;;;5.07;88.33
50103;BME280;35993;52.604;10.078;2023-04-27T00:55:48;101508.59;;;5.02;88.60
50103;BME280;35993;52.604;10.078;2023-04-27T00:58:14;101514.31;;;4.99;88.97
50103;BME280;35993;52.604;10.078;2023-04-27T01:00:40;101514.31;;;4.99;89.32
50103;BME280;35993;52.604;10.078;2023-04-27T01:03:06;101510.09;;;4.97;89.47
50103;BME280;35993;52.604;10.078;2023-04-27T01:05:33;101513.78;;;4.96;90.07
50103;BME280;35993;52.604;10.078;2023-04-27T01:07:59;101511.00;;;4.79;90.13
50103;BME280;35993;52.604;10.078;2023-04-27T01:10:26;101514.41;;;4.81;90.47
50103;BME280;35993;52.604;10.078;2023-04-27T01:12:51;101506.78;;;4.76;90.83
50103;BME280;35993;52.604;10.078;2023-04-27T01:15:17;101524.47;;;4.79;90.53
50103;BME280;35993;52.604;10.078;2023-04-27T01:17:42;101522.03;;;4.68;90.34
50103;BME280;35993;52.604;10.078;2023-04-27T01:20:08;101521.38;;;4.66;90.64
50103;BME280;35993;52.604;10.078;2023-04-27T01:22:35;101514.59;;;4.62;90.94
50103;BME280;35993;52.604;10.078;2023-04-27T01:25:01;101525.13;;;4.55;91.29
50103;BME280;35993;52.604;10.078;2023-04-27T01:27:30;101516.69;;;4.50;91.71
50103;BME280;35993;52.604;10.078;2023-04-27T01:29:55;101528.25;;;4.42;91.64
50103;BME280;35993;52.604;10.078;2023-04-27T01:32:23;101535.38;;;4.33;92.29
50103;BME280;35993;52.604;10.078;2023-04-27T01:34:51;101533.41;;;4.35;92.77
50103;BME280;35993;52.604;10.078;2023-04-27T01:37:16;101532.50;;;4.26;92.74
50103;BME280;35993;52.604;10.078;2023-04-27T01:39:42;101540.38;;;4.28;93.42
50103;BME280;35993;52.604;10.078;2023-04-27T01:42:07;101543.63;;;4.32;93.24
50103;BME280;35993;52.604;10.078;2023-04-27T01:44:33;101548.06;;;4.23;93.38
50103;BME280;35993;52.604;10.078;2023-04-27T01:46:59;101550.38;;;4.18;93.47
50103;BME280;35993;52.604;10.078;2023-04-27T01:49:25;101550.63;;;4.06;94.25
50103;BME280;35993;52.604;10.078;2023-04-27T01:51:50;101558.84;;;4.05;94.28
50103;BME280;35993;52.604;10.078;2023-04-27T01:54:16;101567.81;;;3.96;94.78
50103;BME280;35993;52.604;10.078;2023-04-27T01:56:42;101567.22;;;4.02;95.09
50103;BME280;35993;52.604;10.078;2023-04-27T01:59:07;101569.19;;;4.00;94.53
50103;BME280;35993;52.604;10.078;2023-04-27T02:01:34;101571.44;;;3.86;95.14
50103;BME280;35993;52.604;10.078;2023-04-27T02:04:00;101571.94;;;3.90;95.89
50103;BME280;35993;52.604;10.078;2023-04-27T02:06:25;101571.09;;;3.89;95.96
50103;BME280;35993;52.604;10.078;2023-04-27T02:08:51;101575.66;;;3.89;96.23
50103;BME280;35993;52.604;10.078;2023-04-27T02:11:17;101580.91;;;3.81;96.00
50103;BME280;35993;52.604;10.078;2023-04-27T02:13:43;101582.06;;;3.78;96.47
50103;BME280;35993;52.604;10.078;2023-04-27T02:16:08;101579.13;;;3.71;96.38
50103;BME280;35993;52.604;10.078;2023-04-27T02:18:34;101580.84;;;3.72;96.83
50103;BME280;35993;52.604;10.078;2023-04-27T02:21:00;101590.97;;;3.79;96.89
50103;BME280;35993;52.604;10.078;2023-04-27T02:23:26;101591.81;;;3.79;97.03
50103;BME280;35993;52.604;10.078;2023-04-27T02:25:51;101592.84;;;3.68;96.74
50103;BME280;35993;52.604;10.078;2023-04-27T02:28:17;101591.47;;;3.64;97.18
50103;BME280;35993;52.604;10.078;2023-04-27T02:30:43;101590.31;;;3.67;97.62
50103;BME280;35993;52.604;10.078;2023-04-27T02:33:11;101591.94;;;3.59;97.59
50103;BME280;35993;52.604;10.078;2023-04-27T02:35:36;101595.50;;;3.50;97.84
50103;BME280;35993;52.604;10.078;2023-04-27T02:38:02;101596.16;;;3.62;98.20
50103;BME280;35993;52.604;10.078;2023-04-27T02:40:28;101594.69;;;3.68;97.51
50103;BME280;35993;52.604;10.078;2023-04-27T02:42:53;101596.84;;;3.64;97.75
50103;BME280;35993;52.604;10.078;2023-04-27T02:45:19;101592.00;;;3.68;97.17
50103;BME280;35993;52.604;10.078;2023-04-27T02:47:45;101594.47;;;3.61;96.94
50103;BME280;35993;52.604;10.078;2023-04-27T02:50:12;101589.38;;;3.58;97.36
50103;BME280;35993;52.604;10.078;2023-04-27T02:52:38;101594.22;;;3.54;97.57
50103;BME280;35993;52.604;10.078;2023-04-27T02:55:04;101587.84;;;3.55;97.74
50103;BME280;35993;52.604;10.078;2023-04-27T02:57:30;101591.78;;;3.61;97.81
50103;BME280;35993;52.604;10.078;2023-04-27T02:59:56;101588.78;;;3.64;97.30
50103;BME280;35993;52.604;10.078;2023-04-27T03:02:21;101589.78;;;3.35;96.59
50103;BME280;35993;52.604;10.078;2023-04-27T03:04:51;101587.47;;;3.03;98.13
50103;BME280;35993;52.604;10.078;2023-04-27T03:07:17;101588.94;;;2.97;99.73
50103;BME280;35993;52.604;10.078;2023-04-27T03:09:43;101596.50;;;3.02;100.00
50103;BME280;35993;52.604;10.078;2023-04-27T03:12:09;101590.34;;;2.91;100.00
50103;BME280;35993;52.604;10.078;2023-04-27T03:14:34;101587.53;;;2.83;100.00
50103;BME280;35993;52.604;10.078;2023-04-27T03:17:00;101595.59;;;2.83;100.00
50103;BME280;35993;52.604;10.078;2023-04-27T03:19:26;101590.47;;;2.90;100.00
50103;BME280;35993;52.604;10.078;2023-04-27T03:21:51;101591.03;;;2.93;100.00
50103;BME280;35993;52.604;10.078;2023-04-27T03:24:17;101589.75;;;2.98;100.00
50103;BME280;35993;52.604;10.078;2023-04-27T03:26:42;101596.00;;;2.98;100.00
50103;BME280;35993;52.604;10.078;2023-04-27T03:29:08;101594.31;;;2.87;100.00
50103;BME280;35993;52.604;10.078;2023-04-27T03:31:34;101601.22;;;2.90;100.00
50103;BME280;35993;52.604;10.078;2023-04-27T03:33:59;101593.56;;;3.05;100.00
50103;BME280;35993;52.604;10.078;2023-04-27T03:36:25;101598.19;;;3.13;100.00
50103;BME280;35993;52.604;10.078;2023-04-27T03:38:51;101602.84;;;3.10;100.00
50103;BME280;35993;52.604;10.078;2023-04-27T03:41:17;101605.28;;;3.04;100.00
50103;BME280;35993;52.604;10.078;2023-04-27T03:43:43;101603.16;;;2.98;100.00
50103;BME280;35993;52.604;10.078;2023-04-27T03:46:08;101603.31;;;3.06;100.00
50103;BME280;35993;52.604;10.078;2023-04-27T03:48:34;101613.22;;;2.95;100.00
50103;BME280;35993;52.604;10.078;2023-04-27T03:51:00;101612.09;;;2.88;100.00
50103;BME280;35993;52.604;10.078;2023-04-27T03:53:26;101613.63;;;3.01;100.00
50103;BME280;35993;52.604;10.078;2023-04-27T03:55:51;101608.13;;;2.92;100.00
50103;BME280;35993;52.604;10.078;2023-04-27T03:58:17;101616.47;;;2.79;100.00
50103;BME280;35993;52.604;10.078;2023-04-27T04:01:09;101616.63;;;2.88;100.00
50103;BME280;35993;52.604;10.078;2023-04-27T04:03:35;101614.66;;;2.80;100.00
50103;BME280;35993;52.604;10.078;2023-04-27T04:06:03;101616.78;;;2.67;100.00
50103;BME280;35993;52.604;10.078;2023-04-27T04:08:29;101615.94;;;2.56;100.00
50103;BME280;35993;52.604;10.078;2023-04-27T04:10:55;101628.09;;;2.51;100.00
50103;BME280;35993;52.604;10.078;2023-04-27T04:13:21;101630.47;;;2.54;100.00
50103;BME280;35993;52.604;10.078;2023-04-27T04:15:47;101632.75;;;2.58;100.00
50103;BME280;35993;52.604;10.078;2023-04-27T04:18:12;101628.22;;;2.49;100.00
50103;BME280;35993;52.604;10.078;2023-04-27T04:20:38;101633.16;;;2.54;100.00
50103;BME280;35993;52.604;10.078;2023-04-27T04:23:04;101629.91;;;2.50;100.00
50103;BME280;35993;52.604;10.078;2023-04-27T04:25:30;101632.56;;;2.40;100.00
50103;BME280;35993;52.604;10.078;2023-04-27T04:27:57;101627.63;;;2.45;100.00
50103;BME280;35993;52.604;10.078;2023-04-27T04:30:22;101633.44;;;2.51;100.00
50103;BME280;35993;52.604;10.078;2023-04-27T04:32:48;101638.25;;;2.47;100.00
50103;BME280;35993;52.604;10.078;2023-04-27T04:35:14;101637.69;;;2.53;100.00
50103;BME280;35993;52.604;10.078;2023-04-27T04:37:44;101638.09;;;2.49;100.00
50103;BME280;35993;52.604;10.078;2023-04-27T04:40:11;101638.34;;;2.45;100.00
50103;BME280;35993;52.604;10.078;2023-04-27T04:42:38;101635.81;;;2.44;100.00
50103;BME280;35993;52.604;10.078;2023-04-27T04:45:05;101646.28;;;2.37;100.00
50103;BME280;35993;52.604;10.078;2023-04-27T04:47:32;101645.00;;;2.51;100.00
50103;BME280;35993;52.604;10.078;2023-04-27T04:49:59;101652.34;;;2.49;100.00
50103;BME280;35993;52.604;10.078;2023-04-27T04:52:29;101650.94;;;2.55;100.00
50103;BME280;35993;52.604;10.078;2023-04-27T04:54:54;101646.56;;;2.54;100.00
50103;BME280;35993;52.604;10.078;2023-04-27T04:57:20;101652.03;;;2.62;100.00
50103;BME280;35993;52.604;10.078;2023-04-27T04:59:46;101647.00;;;2.69;100.00
50103;BME280;35993;52.604;10.078;2023-04-27T05:02:12;101651.34;;;2.70;100.00
50103;BME280;35993;52.604;10.078;2023-04-27T05:04:37;101651.34;;;2.70;100.00
50103;BME280;35993;52.604;10.078;2023-04-27T05:07:03;101655.56;;;2.82;100.00
50103;BME280;35993;52.604;10.078;2023-04-27T05:09:30;101651.75;;;2.75;100.00
50103;BME280;35993;52.604;10.078;2023-04-27T05:11:56;101659.94;;;2.83;100.00
50103;BME280;35993;52.604;10.078;2023-04-27T05:14:22;101648.78;;;2.98;100.00
50103;BME280;35993;52.604;10.078;2023-04-27T05:16:47;101653.41;;;3.15;100.00
50103;BME280;35993;52.604;10.078;2023-04-27T05:19:13;101653.91;;;3.28;100.00
50103;BME280;35993;52.604;10.078;2023-04-27T05:21:43;101662.78;;;3.39;100.00
50103;BME280;35993;52.604;10.078;2023-04-27T05:24:10;101663.06;;;3.46;100.00
50103;BME280;35993;52.604;10.078;2023-04-27T05:26:37;101666.84;;;3.53;100.00
50103;BME280;35993;52.604;10.078;2023-04-27T05:29:03;101667.84;;;3.80;100.00
50103;BME280;35993;52.604;10.078;2023-04-27T05:31:29;101665.44;;;3.86;100.00
50103;BME280;35993;52.604;10.078;2023-04-27T05:33:55;101661.28;;;3.92;100.00
50103;BME280;35993;52.604;10.078;2023-04-27T05:36:21;101672.00;;;4.02;100.00
50103;BME280;35993;52.604;10.078;2023-04-27T05:38:47;101662.59;;;4.16;99.13
50103;BME280;35993;52.604;10.078;2023-04-27T05:41:13;101670.94;;;4.13;98.66
50103;BME280;35993;52.604;10.078;2023-04-27T05:43:39;101668.47;;;4.19;97.66
50103;BME280;35993;52.604;10.078;2023-04-27T05:46:05;101671.94;;;4.30;97.58
50103;BME280;35993;52.604;10.078;2023-04-27T05:48:31;101674.34;;;4.51;97.07
50103;BME280;35993;52.604;10.078;2023-04-27T05:51:01;101678.41;;;4.55;96.44
50103;BME280;35993;52.604;10.078;2023-04-27T05:53:27;101672.13;;;4.46;95.71
50103;BME280;35993;52.604;10.078;2023-04-27T05:55:53;101679.28;;;4.55;95.18
50103;BME280;35993;52.604;10.078;2023-04-27T05:58:19;101680.88;;;4.66;94.59
50103;BME280;35993;52.604;10.078;2023-04-27T06:00:44;101678.19;;;4.84;94.32
50103;BME280;35993;52.604;10.078;2023-04-27T06:03:10;101682.25;;;4.88;93.31
50103;BME280;35993;52.604;10.078;2023-04-27T06:05:36;101685.38;;;5.02;93.46
50103;BME280;35993;52.604;10.078;2023-04-27T06:08:02;101688.41;;;4.99;93.13
50103;BME280;35993;52.604;10.078;2023-04-27T06:10:27;101690.81;;;5.28;92.04
50103;BME280;35993;52.604;10.078;2023-04-27T06:12:53;101687.31;;;5.36;91.08
50103;BME280;35993;52.604;10.078;2023-04-27T06:15:19;101682.00;;;5.52;90.89
50103;BME280;35993;52.604;10.078;2023-04-27T06:17:45;101676.47;;;5.54;89.86
50103;BME280;35993;52.604;10.078;2023-04-27T06:20:11;101684.75;;;5.61;89.20
50103;BME280;35993;52.604;10.078;2023-04-27T06:22:37;101686.00;;;5.74;88.68
50103;BME280;35993;52.604;10.078;2023-04-27T06:25:06;101692.03;;;5.68;87.32
50103;BME280;35993;52.604;10.078;2023-04-27T06:27:32;101693.47;;;5.54;88.00
50103;BME280;35993;52.604;10.078;2023-04-27T06:29:58;101697.50;;;5.85;88.20
50103;BME280;35993;52.604;10.078;2023-04-27T06:32:23;101702.25;;;6.34;87.27
50103;BME280;35993;52.604;10.078;2023-04-27T06:34:49;101701.94;;;6.37;85.13
50103;BME280;35993;52.604;10.078;2023-04-27T06:37:15;101696.28;;;6.14;84.36
50103;BME280;35993;52.604;10.078;2023-04-27T06:39:45;101705.81;;;6.34;84.84
50103;BME280;35993;52.604;10.078;2023-04-27T06:42:10;101698.38;;;6.28;83.97
50103;BME280;35993;52.604;10.078;2023-04-27T06:44:37;101696.84;;;6.34;83.27
50103;BME280;35993;52.604;10.078;2023-04-27T06:47:02;101708.34;;;6.36;84.15
50103;BME280;35993;52.604;10.078;2023-04-27T06:49:28;101706.28;;;6.30;84.57
50103;BME280;35993;52.604;10.078;2023-04-27T06:51:54;101702.06;;;6.27;83.29
50103;BME280;35993;52.604;10.078;2023-04-27T06:54:20;101708.38;;;6.52;83.38
50103;BME280;35993;52.604;10.078;2023-04-27T06:56:46;101708.38;;;6.61;82.34
50103;BME280;35993;52.604;10.078;2023-04-27T06:59:11;101703.50;;;6.81;81.33
50103;BME280;35993;52.604;10.078;2023-04-27T07:01:37;101701.66;;;6.98;80.55
50103;BME280;35993;52.604;10.078;2023-04-27T07:04:04;101703.66;;;7.12;79.68
50103;BME280;35993;52.604;10.078;2023-04-27T07:06:30;101700.13;;;7.12;79.69
50103;BME280;35993;52.604;10.078;2023-04-27T07:08:56;101704.38;;;7.06;78.90
50103;BME280;35993;52.604;10.078;2023-04-27T07:11:22;101705.03;;;7.00;79.14
50103;BME280;35993;52.604;10.078;2023-04-27T07:13:48;101711.78;;;7.20;78.63
50103;BME280;35993;52.604;10.078;2023-04-27T07:16:14;101709.75;;;7.31;77.91
50103;BME280;35993;52.604;10.078;2023-04-27T07:18:40;101706.34;;;7.29;76.17
50103;BME280;35993;52.604;10.078;2023-04-27T07:21:06;101707.53;;;7.26;76.19
50103;BME280;35993;52.604;10.078;2023-04-27T07:23:32;101700.28;;;7.35;76.13
50103;BME280;35993;52.604;10.078;2023-04-27T07:25:58;101708.06;;;7.38;76.42
50103;BME280;35993;52.604;10.078;2023-04-27T07:28:24;101695.63;;;7.68;75.26
50103;BME280;35993;52.604;10.078;2023-04-27T07:30:50;101703.53;;;7.86;74.67
50103;BME280;35993;52.604;10.078;2023-04-27T07:33:16;101693.06;;;7.83;72.44
50103;BME280;35993;52.604;10.078;2023-04-27T07:35:42;101693.78;;;7.69;72.20
50103;BME280;35993;52.604;10.078;2023-04-27T07:38:08;101695.56;;;7.85;71.78
50103;BME280;35993;52.604;10.078;2023-04-27T07:40:34;101688.22;;;8.10;71.12
50103;BME280;35993;52.604;10.078;2023-04-27T07:43:01;101687.22;;;8.03;71.20
50103;BME280;35993;52.604;10.078;2023-04-27T07:45:27;101688.91;;;8.04;70.36
50103;BME280;35993;52.604;10.078;2023-04-27T07:48:00;101684.34;;;8.36;69.41
50103;BME280;35993;52.604;10.078;2023-04-27T07:50:27;101685.78;;;8.55;68.64
50103;BME280;35993;52.604;10.078;2023-04-27T07:52:54;101680.06;;;8.18;69.17
50103;BME280;35993;52.604;10.078;2023-04-27T07:55:21;101690.88;;;8.18;68.61
50103;BME280;35993;52.604;10.078;2023-04-27T07:57:55;101690.72;;;7.80;68.10
50103;BME280;35993;52.604;10.078;2023-04-27T08:00:21;101685.34;;;8.35;68.31
50103;BME280;35993;52.604;10.078;2023-04-27T08:02:48;101679.66;;;8.61;66.82
50103;BME280;35993;52.604;10.078;2023-04-27T08:05:14;101681.75;;;8.74;66.43
50103;BME280;35993;52.604;10.078;2023-04-27T08:07:40;101678.84;;;8.99;66.62
50103;BME280;35993;52.604;10.078;2023-04-27T08:10:07;101654.97;;;9.17;64.48
50103;BME280;35993;52.604;10.078;2023-04-27T08:12:33;101658.84;;;8.85;63.26
50103;BME280;35993;52.604;10.078;2023-04-27T08:14:59;101675.63;;;8.80;65.64
50103;BME280;35993;52.604;10.078;2023-04-27T08:17:24;101651.97;;;8.51;64.97
50103;BME280;35993;52.604;10.078;2023-04-27T08:19:50;101655.75;;;7.79;64.54
50103;BME280;35993;52.604;10.078;2023-04-27T08:22:15;101662.84;;;8.11;65.31
50103;BME280;35993;52.604;10.078;2023-04-27T08:24:41;101662.63;;;8.76;65.44
50103;BME280;35993;52.604;10.078;2023-04-27T08:27:07;101650.66;;;9.08;63.66
50103;BME280;35993;52.604;10.078;2023-04-27T08:29:33;101655.81;;;9.33;62.61
50103;BME280;35993;52.604;10.078;2023-04-27T08:32:00;101651.72;;;9.37;60.06
50103;BME280;35993;52.604;10.078;2023-04-27T08:34:26;101649.56;;;9.47;59.27
50103;BME280;35993;52.604;10.078;2023-04-27T08:36:52;101644.44;;;9.38;59.61
50103;BME280;35993;52.604;10.078;2023-04-27T08:39:18;101643.59;;;9.52;60.02
50103;BME280;35993;52.604;10.078;2023-04-27T08:41:44;101640.50;;;9.55;59.20
50103;BME280;35993;52.604;10.078;2023-04-27T08:44:10;101641.44;;;9.62;59.75
50103;BME280;35993;52.604;10.078;2023-04-27T08:46:37;101633.78;;;9.21;59.02
50103;BME280;35993;52.604;10.078;2023-04-27T08:49:03;101623.28;;;8.65;57.22
50103;BME280;35993;52.604;10.078;2023-04-27T08:51:28;101635.25;;;8.71;59.11
50103;BME280;35993;52.604;10.078;2023-04-27T08:53:55;101637.44;;;8.52;59.13
50103;BME280;35993;52.604;10.078;2023-04-27T08:56:26;101631.09;;;8.36;58.55
50103;BME280;35993;52.604;10.078;2023-04-27T08:58:53;101624.69;;;8.61;58.29
50103;BME280;35993;52.604;10.078;2023-04-27T09:01:20;101628.44;;;9.13;57.28
50103;BME280;35993;52.604;10.078;2023-04-27T09:03:46;101619.47;;;9.42;56.24
50103;BME280;35993;52.604;10.078;2023-04-27T09:06:13;101623.75;;;9.81;56.31
50103;BME280;35993;52.604;10.078;2023-04-27T09:08:44;101609.31;;;9.96;55.45
50103;BME280;35993;52.604;10.078;2023-04-27T09:11:10;101597.84;;;9.94;54.40
50103;BME280;35993;52.604;10.078;2023-04-27T09:13:37;101606.75;;;10.09;54.97
50103;BME280;35993;52.604;10.078;2023-04-27T09:16:04;101616.03;;;10.37;55.00
50103;BME280;35993;52.604;10.078;2023-04-27T09:18:30;101611.47;;;10.37;54.78
50103;BME280;35993;52.604;10.078;2023-04-27T09:20:59;101603.94;;;10.61;54.42
50103;BME280;35993;52.604;10.078;2023-04-27T09:23:35;101598.19;;;10.71;53.53
50103;BME280;35993;52.604;10.078;2023-04-27T09:26:03;101575.38;;;10.43;52.26
50103;BME280;35993;52.604;10.078;2023-04-27T09:28:34;101581.00;;;10.42;52.61
50103;BME280;35993;52.604;10.078;2023-04-27T09:31:01;101586.19;;;10.37;52.25
50103;BME280;35993;52.604;10.078;2023-04-27T09:33:29;101593.59;;;10.71;52.71
50103;BME280;35993;52.604;10.078;2023-04-27T09:35:56;101597.72;;;10.89;51.93
50103;BME280;35993;52.604;10.078;2023-04-27T09:38:22;101585.81;;;10.90;50.93
50103;BME280;35993;52.604;10.078;2023-04-27T09:40:52;101590.88;;;10.28;51.62
50103;BME280;35993;52.604;10.078;2023-04-27T09:43:18;101594.91;;;9.95;52.49
50103;BME280;35993;52.604;10.078;2023-04-27T09:45:44;101594.31;;;9.78;52.68
50103;BME280;35993;52.604;10.078;2023-04-27T09:48:11;101598.84;;;9.93;52.32
50103;BME280;35993;52.604;10.078;2023-04-27T09:50:42;101590.81;;;10.21;51.58
50103;BME280;35993;52.604;10.078;2023-04-27T09:53:13;101580.41;;;10.25;51.10
50103;BME280;35993;52.604;10.078;2023-04-27T09:55:50;101579.56;;;10.24;51.71
50103;BME280;35993;52.604;10.078;2023-04-27T10:01:20;101591.72;;;10.28;52.42
50103;BME280;35993;52.604;10.078;2023-04-27T10:04:04;101582.91;;;10.05;50.77
50103;BME280;35993;52.604;10.078;2023-04-27T10:08:59;101581.75;;;10.14;51.35
50103;BME280;35993;52.604;10.078;2023-04-27T10:11:39;101586.19;;;10.37;52.05
50103;BME280;35993;52.604;10.078;2023-04-27T10:14:07;101577.78;;;10.53;50.27
50103;BME280;35993;52.604;10.078;2023-04-27T10:16:49;101573.19;;;10.32;49.60
50103;BME280;35993;52.604;10.078;2023-04-27T10:19:15;101576.66;;;10.26;50.03
50103;BME280;35993;52.604;10.078;2023-04-27T10:21:52;101580.72;;;10.15;49.86
50103;BME280;35993;52.604;10.078;2023-04-27T10:24:18;101580.03;;;10.49;50.28
50103;BME280;35993;52.604;10.078;2023-04-27T10:26:47;101582.72;;;10.71;49.77
50103;BME280;35993;52.604;10.078;2023-04-27T10:29:12;101570.19;;;10.70;48.05
50103;BME280;35993;52.604;10.078;2023-04-27T10:31:46;101565.75;;;11.26;47.57
50103;BME280;35993;52.604;10.078;2023-04-27T10:34:16;101571.34;;;11.18;47.88
50103;BME280;35993;52.604;10.078;2023-04-27T10:36:42;101566.09;;;10.81;47.82
50103;BME280;35993;52.604;10.078;2023-04-27T10:39:21;101567.75;;;10.54;48.20
50103;BME280;35993;52.604;10.078;2023-04-27T10:41:53;101570.09;;;10.57;48.23
50103;BME280;35993;52.604;10.078;2023-04-27T10:44:24;101583.09;;;10.40;49.77
50103;BME280;35993;52.604;10.078;2023-04-27T10:46:55;101585.38;;;10.36;49.73
50103;BME280;35993;52.604;10.078;2023-04-27T10:49:22;101597.56;;;10.47;50.82
50103;BME280;35993;52.604;10.078;2023-04-27T10:51:51;101576.66;;;10.04;48.41
50103;BME280;35993;52.604;10.078;2023-04-27T10:54:17;101580.91;;;10.13;49.06
50103;BME280;35993;52.604;10.078;2023-04-27T10:56:43;101588.44;;;10.55;48.67
50103;BME280;35993;52.604;10.078;2023-04-27T10:59:09;101579.94;;;10.86;47.55
50103;BME280;35993;52.604;10.078;2023-04-27T11:01:35;101573.53;;;11.01;47.87
50103;BME280;35993;52.604;10.078;2023-04-27T11:04:02;101566.78;;;10.90;47.41
50103;BME280;35993;52.604;10.078;2023-04-27T11:06:30;101552.72;;;10.79;47.24
50103;BME280;35993;52.604;10.078;2023-04-27T11:08:58;101558.56;;;10.83;47.50
50103;BME280;35993;52.604;10.078;2023-04-27T11:11:23;101565.34;;;10.94;47.73
50103;BME280;35993;52.604;10.078;2023-04-27T11:13:51;101567.28;;;11.00;47.85
50103;BME280;35993;52.604;10.078;2023-04-27T11:16:20;101573.91;;;10.91;48.77
50103;BME280;35993;52.604;10.078;2023-04-27T11:18:46;101576.97;;;10.81;48.88
50103;BME280;35993;52.604;10.078;2023-04-27T11:21:14;101569.59;;;10.75;48.04
50103;BME280;35993;52.604;10.078;2023-04-27T11:23:40;101572.47;;;10.67;48.02
50103;BME280;35993;52.604;10.078;2023-04-27T11:26:10;101574.28;;;10.59;48.22
50103;BME280;35993;52.604;10.078;2023-04-27T11:28:36;101576.06;;;10.30;49.19
50103;BME280;35993;52.604;10.078;2023-04-27T11:31:02;101579.50;;;10.17;49.50
50103;BME280;35993;52.604;10.078;2023-04-27T11:33:30;101572.31;;;10.10;48.58
50103;BME280;35993;52.604;10.078;2023-04-27T11:35:57;101579.38;;;10.04;49.43
50103;BME280;35993;52.604;10.078;2023-04-27T11:38:23;101585.25;;;10.08;49.71
50103;BME280;35993;52.604;10.078;2023-04-27T11:41:03;101583.31;;;10.02;49.34
50103;BME280;35993;52.604;10.078;2023-04-27T11:43:30;101590.75;;;10.14;50.43
50103;BME280;35993;52.604;10.078;2023-04-27T11:45:56;101577.03;;;10.23;49.59
50103;BME280;35993;52.604;10.078;2023-04-27T11:48:23;101587.75;;;10.96;48.46
50103;BME280;35993;52.604;10.078;2023-04-27T11:50:49;101568.75;;;11.03;47.53
50103;BME280;35993;52.604;10.078;2023-04-27T11:53:16;101561.16;;;11.26;47.27
50103;BME280;35993;52.604;10.078;2023-04-27T11:55:42;101557.84;;;11.86;46.52
50103;BME280;35993;52.604;10.078;2023-04-27T11:58:14;101566.75;;;12.22;46.38
50103;BME280;35993;52.604;10.078;2023-04-27T12:00:41;101569.28;;;12.57;46.73
50103;BME280;35993;52.604;10.078;2023-04-27T12:03:07;101549.25;;;11.83;45.90
50103;BME280;35993;52.604;10.078;2023-04-27T12:05:34;101562.28;;;11.39;46.67
50103;BME280;35993;52.604;10.078;2023-04-27T12:08:00;101549.91;;;11.36;46.49
50103;BME280;35993;52.604;10.078;2023-04-27T12:10:26;101561.00;;;11.35;47.18
50103;BME280;35993;52.604;10.078;2023-04-27T12:12:52;101558.06;;;11.36;47.07
50103;BME280;35993;52.604;10.078;2023-04-27T12:15:18;101561.16;;;11.26;46.78
50103;BME280;35993;52.604;10.078;2023-04-27T12:17:43;101551.59;;;11.02;46.91
50103;BME280;35993;52.604;10.078;2023-04-27T12:20:10;101560.34;;;10.91;47.47
50103;BME280;35993;52.604;10.078;2023-04-27T12:22:36;101565.41;;;11.01;48.28
50103;BME280;35993;52.604;10.078;2023-04-27T12:25:01;101559.88;;;11.64;47.08
50103;BME280;35993;52.604;10.078;2023-04-27T12:27:27;101555.00;;;12.01;46.00
50103;BME280;35993;52.604;10.078;2023-04-27T12:29:53;101542.88;;;12.04;45.19
50103;BME280;35993;52.604;10.078;2023-04-27T12:32:19;101543.00;;;11.89;45.10
50103;BME280;35993;52.604;10.078;2023-04-27T12:34:45;101540.50;;;11.87;44.16
50103;BME280;35993;52.604;10.078;2023-04-27T12:37:11;101542.84;;;11.97;45.28
50103;BME280;35993;52.604;10.078;2023-04-27T12:39:37;101544.66;;;11.83;45.61
50103;BME280;35993;52.604;10.078;2023-04-27T12:42:03;101548.94;;;11.51;46.28
50103;BME280;35993;52.604;10.078;2023-04-27T12:44:29;101543.25;;;11.39;46.22
50103;BME280;35993;52.604;10.078;2023-04-27T12:46:55;101550.50;;;11.31;46.97
50103;BME280;35993;52.604;10.078;2023-04-27T12:49:21;101552.81;;;11.28;46.85